sensor_id;sensor_type;location;lat;lon;timestamp;temperature;humidity
33699;DHT22;20032;52.436;13.312;2023-02-26T00:02:05;1.40;99.90
33699;DHT22;20032;52.436;13.312;2023-02-26T00:04:31;1.30;99.90
33699;DHT22;20032;52.436;13.312;2023-02-26T00:06:56;1.40;99.90
33699;DHT22;20032;52.436;13.312;2023-02-26T00:09:22;1.40;99.90
33699;DHT22;20032;52.436;13.312;2023-02-26T00:11:48;1.30;99.90
33699;DHT22;20032;52.436;13.312;2023-02-26T00:14:15;1.40;99.90
33699;DHT22;20032;52.436;13.312;2023-02-26T00:16:40;1.40;99.90
33699;DHT22;20032;52.436;13.312;2023-02-26T00:19:07;1.50;99.90
33699;DHT22;20032;52.436;13.312;2023-02-26T00:21:35;1.40;99.90
33699;DHT22;20032;52.436;13.312;2023-02-26T00:24:01;1.30;99.90
33699;DHT22;20032;52.436;13.312;2023-02-26T00:26:28;1.20;99.90
33699;DHT22;20032;52.436;13.312;2023-02-26T00:28:54;1.20;99.90
33699;DHT22;20032;52.436;13.312;2023-02-26T00:31:21;1.20;99.90
33699;DHT22;20032;52.436;13.312;2023-02-26T00:33:49;1.20;99.90
33699;DHT22;20032;52.436;13.312;2023-02-26T00:36:19;1.10;99.90
33699;DHT22;20032;52.436;13.312;2023-02-26T00:38:57;1.10;99.90
33699;DHT22;20032;52.436;13.312;2023-02-26T00:41:26;1.10;99.90
33699;DHT22;20032;52.436;13.312;2023-02-26T00:43:53;1.10;99.90
33699;DHT22;20032;52.436;13.312;2023-02-26T00:46:27;1.20;99.90
33699;DHT22;20032;52.436;13.312;2023-02-26T00:49:06;1.20;99.90
33699;DHT22;20032;52.436;13.312;2023-02-26T00:54:19;1.20;99.90
33699;DHT22;20032;52.436;13.312;2023-02-26T00:56:47;1.30;99.90
33699;DHT22;20032;52.436;13.312;2023-02-26T00:59:12;1.30;99.90
33699;DHT22;20032;52.436;13.312;2023-02-26T01:01:38;1.20;99.90
33699;DHT22;20032;52.436;13.312;2023-02-26T01:04:04;1.20;99.90
33699;DHT22;20032;52.436;13.312;2023-02-26T01:06:33;1.20;99.90
33699;DHT22;20032;52.436;13.312;2023-02-26T01:09:16;1.30;99.90
33699;DHT22;20032;52.436;13.312;2023-02-26T01:11:43;1.50;99.90
33699;DHT22;20032;52.436;13.312;2023-02-26T01:14:08;1.50;99.90
33699;DHT22;20032;52.436;13.312;2023-02-26T01:16:43;1.50;99.90
33699;DHT22;20032;52.436;13.312;2023-02-26T01:19:37;1.50;99.90
33699;DHT22;20032;52.436;13.312;2023-02-26T01:22:12;1.50;99.90
33699;DHT22;20032;52.436;13.312;2023-02-26T01:24:39;1.60;99.90
33699;DHT22;20032;52.436;13.312;2023-02-26T01:27:05;1.60;99.90
33699;DHT22;20032;52.436;13.312;2023-02-26T01:29:31;1.60;99.90
33699;DHT22;20032;52.436;13.312;2023-02-26T01:32:24;1.70;99.90
33699;DHT22;20032;52.436;13.312;2023-02-26T01:35:04;1.60;99.90
33699;DHT22;20032;52.436;13.312;2023-02-26T01:37:45;1.50;99.90
33699;DHT22;20032;52.436;13.312;2023-02-26T01:42:21;1.50;99.90
33699;DHT22;20032;52.436;13.312;2023-02-26T01:43:10;1.50;99.90
33699;DHT22;20032;52.436;13.312;2023-02-26T01:46:20;1.50;99.90
33699;DHT22;20032;52.436;13.312;2023-02-26T01:48:52;1.60;99.90
33699;DHT22;20032;52.436;13.312;2023-02-26T01:51:40;1.50;99.90
33699;DHT22;20032;52.436;13.312;2023-02-26T01:54:06;1.60;99.90
33699;DHT22;20032;52.436;13.312;2023-02-26T01:56:31;1.60;99.90
33699;DHT22;20032;52.436;13.312;2023-02-26T01:58:57;1.60;99.90
33699;DHT22;20032;52.436;13.312;2023-02-26T02:01:23;1.50;99.90
33699;DHT22;20032;52.436;13.312;2023-02-26T02:03:49;1.60;99.90
33699;DHT22;20032;52.436;13.312;2023-02-26T02:06:18;1.60;99.90
33699;DHT22;20032;52.436;13.312;2023-02-26T02:08:45;1.70;99.90
33699;DHT22;20032;52.436;13.312;2023-02-26T02:11:11;1.70;99.90
33699;DHT22;20032;52.436;13.312;2023-02-26T02:13:53;1.70;99.90
33699;DHT22;20032;52.436;13.312;2023-02-26T02:16:30;1.70;99.90
33699;DHT22;20032;52.436;13.312;2023-02-26T02:21:53;1.70;99.90
33699;DHT22;20032;52.436;13.312;2023-02-26T02:28:26;1.60;99.90
33699;DHT22;20032;52.436;13.312;2023-02-26T02:30:49;1.60;99.90
33699;DHT22;20032;52.436;13.312;2023-02-26T02:32:57;1.60;99.90
33699;DHT22;20032;52.436;13.312;2023-02-26T02:35:30;1.70;99.90
33699;DHT22;20032;52.436;13.312;2023-02-26T02:38:03;1.70;99.90
33699;DHT22;20032;52.436;13.312;2023-02-26T02:40:34;1.70;99.90
33699;DHT22;20032;52.436;13.312;2023-02-26T02:43:03;1.70;99.90
33699;DHT22;20032;52.436;13.312;2023-02-26T02:45:50;1.70;99.90
33699;DHT22;20032;52.436;13.312;2023-02-26T02:48:23;1.70;99.90
33699;DHT22;20032;52.436;13.312;2023-02-26T02:50:54;1.70;99.90
33699;DHT22;20032;52.436;13.312;2023-02-26T02:53:25;1.70;99.90
33699;DHT22;20032;52.436;13.312;2023-02-26T02:55:57;1.60;99.90
33699;DHT22;20032;52.436;13.312;2023-02-26T02:58:29;1.70;99.90
33699;DHT22;20032;52.436;13.312;2023-02-26T03:00:59;1.80;99.90
33699;DHT22;20032;52.436;13.312;2023-02-26T03:04:16;1.70;99.90
33699;DHT22;20032;52.436;13.312;2023-02-26T03:06:30;1.70;99.90
33699;DHT22;20032;52.436;13.312;2023-02-26T03:08:57;1.70;99.90
33699;DHT22;20032;52.436;13.312;2023-02-26T03:11:24;1.70;99.90
33699;DHT22;20032;52.436;13.312;2023-02-26T03:13:50;1.70;99.90
33699;DHT22;20032;52.436;13.312;2023-02-26T03:17:13;1.70;99.90
33699;DHT22;20032;52.436;13.312;2023-02-26T03:20:33;1.70;99.90
33699;DHT22;20032;52.436;13.312;2023-02-26T03:28:00;1.70;99.90
33699;DHT22;20032;52.436;13.312;2023-02-26T03:30:37;1.70;99.90
33699;DHT22;20032;52.436;13.312;2023-02-26T03:33:18;1.70;99.90
33699;DHT22;20032;52.436;13.312;2023-02-26T03:35:59;1.60;99.90
33699;DHT22;20032;52.436;13.312;2023-02-26T03:38:50;1.60;99.90
33699;DHT22;20032;52.436;13.312;2023-02-26T03:41:23;1.60;99.90
33699;DHT22;20032;52.436;13.312;2023-02-26T03:44:02;1.60;99.90
33699;DHT22;20032;52.436;13.312;2023-02-26T03:46:40;1.50;99.90
33699;DHT22;20032;52.436;13.312;2023-02-26T03:49:11;1.60;99.90
33699;DHT22;20032;52.436;13.312;2023-02-26T03:51:37;1.60;99.90
33699;DHT22;20032;52.436;13.312;2023-02-26T03:54:09;1.60;99.90
33699;DHT22;20032;52.436;13.312;2023-02-26T03:56:42;1.70;99.90
33699;DHT22;20032;52.436;13.312;2023-02-26T03:59:10;1.70;99.90
33699;DHT22;20032;52.436;13.312;2023-02-26T04:01:43;1.70;99.90
33699;DHT22;20032;52.436;13.312;2023-02-26T04:04:16;1.70;99.90
33699;DHT22;20032;52.436;13.312;2023-02-26T04:06:43;1.70;99.90
33699;DHT22;20032;52.436;13.312;2023-02-26T04:09:09;1.70;99.90
33699;DHT22;20032;52.436;13.312;2023-02-26T04:11:36;1.70;99.90
33699;DHT22;20032;52.436;13.312;2023-02-26T04:14:02;1.60;99.90
33699;DHT22;20032;52.436;13.312;2023-02-26T04:16:28;1.60;99.90
33699;DHT22;20032;52.436;13.312;2023-02-26T04:18:53;1.70;99.90
33699;DHT22;20032;52.436;13.312;2023-02-26T04:21:21;1.60;99.90
33699;DHT22;20032;52.436;13.312;2023-02-26T04:23:48;1.60;99.90
33699;DHT22;20032;52.436;13.312;2023-02-26T04:26:13;1.60;99.90
33699;DHT22;20032;52.436;13.312;2023-02-26T04:28:40;1.70;99.90
33699;DHT22;20032;52.436;13.312;2023-02-26T04:31:06;1.70;99.90
33699;DHT22;20032;52.436;13.312;2023-02-26T04:33:32;1.70;99.90
33699;DHT22;20032;52.436;13.312;2023-02-26T04:35:58;1.70;99.90
33699;DHT22;20032;52.436;13.312;2023-02-26T04:38:23;1.60;99.90
33699;DHT22;20032;52.436;13.312;2023-02-26T04:40:49;1.60;99.90
33699;DHT22;20032;52.436;13.312;2023-02-26T04:43:16;1.60;99.90
33699;DHT22;20032;52.436;13.312;2023-02-26T04:45:44;1.60;99.90
33699;DHT22;20032;52.436;13.312;2023-02-26T04:48:10;1.60;99.90
33699;DHT22;20032;52.436;13.312;2023-02-26T04:50:35;1.60;99.90
33699;DHT22;20032;52.436;13.312;2023-02-26T04:53:01;1.60;99.90
33699;DHT22;20032;52.436;13.312;2023-02-26T04:55:26;1.60;99.90
33699;DHT22;20032;52.436;13.312;2023-02-26T04:57:52;1.50;99.90
33699;DHT22;20032;52.436;13.312;2023-02-26T05:00:18;1.60;99.90
33699;DHT22;20032;52.436;13.312;2023-02-26T05:02:44;1.60;99.90
33699;DHT22;20032;52.436;13.312;2023-02-26T05:05:10;1.60;99.90
33699;DHT22;20032;52.436;13.312;2023-02-26T05:07:36;1.70;99.90
33699;DHT22;20032;52.436;13.312;2023-02-26T05:10:02;1.70;99.90
33699;DHT22;20032;52.436;13.312;2023-02-26T05:12:28;1.70;99.90
33699;DHT22;20032;52.436;13.312;2023-02-26T05:14:53;1.70;99.90
33699;DHT22;20032;52.436;13.312;2023-02-26T05:17:19;1.60;99.90
33699;DHT22;20032;52.436;13.312;2023-02-26T05:19:44;1.60;99.90
33699;DHT22;20032;52.436;13.312;2023-02-26T05:22:09;1.60;99.90
33699;DHT22;20032;52.436;13.312;2023-02-26T05:24:35;1.60;99.90
33699;DHT22;20032;52.436;13.312;2023-02-26T05:27:00;1.70;99.90
33699;DHT22;20032;52.436;13.312;2023-02-26T05:29:26;1.70;99.90
33699;DHT22;20032;52.436;13.312;2023-02-26T05:31:51;1.70;99.90
33699;DHT22;20032;52.436;13.312;2023-02-26T05:34:17;1.60;99.90
33699;DHT22;20032;52.436;13.312;2023-02-26T05:36:42;1.80;99.90
33699;DHT22;20032;52.436;13.312;2023-02-26T05:39:08;1.80;99.90
33699;DHT22;20032;52.436;13.312;2023-02-26T05:41:34;1.70;99.90
33699;DHT22;20032;52.436;13.312;2023-02-26T05:44:00;1.70;99.90
33699;DHT22;20032;52.436;13.312;2023-02-26T05:46:26;1.80;99.90
33699;DHT22;20032;52.436;13.312;2023-02-26T05:48:55;1.70;99.90
33699;DHT22;20032;52.436;13.312;2023-02-26T05:51:20;1.80;99.90
33699;DHT22;20032;52.436;13.312;2023-02-26T05:53:46;1.90;99.90
33699;DHT22;20032;52.436;13.312;2023-02-26T05:56:12;1.80;99.90
33699;DHT22;20032;52.436;13.312;2023-02-26T05:58:37;1.90;99.90
33699;DHT22;20032;52.436;13.312;2023-02-26T06:01:03;1.80;99.90
33699;DHT22;20032;52.436;13.312;2023-02-26T06:03:28;1.80;99.90
33699;DHT22;20032;52.436;13.312;2023-02-26T06:05:54;1.80;99.90
33699;DHT22;20032;52.436;13.312;2023-02-26T06:08:19;1.80;99.90
33699;DHT22;20032;52.436;13.312;2023-02-26T06:10:45;1.80;99.90
33699;DHT22;20032;52.436;13.312;2023-02-26T06:13:10;1.90;99.90
33699;DHT22;20032;52.436;13.312;2023-02-26T06:15:36;1.80;99.90
33699;DHT22;20032;52.436;13.312;2023-02-26T06:18:01;1.80;99.90
33699;DHT22;20032;52.436;13.312;2023-02-26T06:20:27;1.80;99.90
33699;DHT22;20032;52.436;13.312;2023-02-26T06:22:53;1.90;99.90
33699;DHT22;20032;52.436;13.312;2023-02-26T06:25:18;2.00;99.90
33699;DHT22;20032;52.436;13.312;2023-02-26T06:27:44;1.90;99.90
33699;DHT22;20032;52.436;13.312;2023-02-26T06:30:10;1.80;99.90
33699;DHT22;20032;52.436;13.312;2023-02-26T06:32:35;1.90;99.90
33699;DHT22;20032;52.436;13.312;2023-02-26T06:35:01;2.00;99.90
33699;DHT22;20032;52.436;13.312;2023-02-26T06:37:27;1.90;99.90
33699;DHT22;20032;52.436;13.312;2023-02-26T06:39:52;2.00;99.90
33699;DHT22;20032;52.436;13.312;2023-02-26T06:42:18;1.90;99.90
33699;DHT22;20032;52.436;13.312;2023-02-26T06:44:43;1.90;99.90
33699;DHT22;20032;52.436;13.312;2023-02-26T06:47:08;2.00;99.90
33699;DHT22;20032;52.436;13.312;2023-02-26T06:49:34;2.00;99.90
33699;DHT22;20032;52.436;13.312;2023-02-26T06:52:00;2.00;99.90
33699;DHT22;20032;52.436;13.312;2023-02-26T06:54:25;2.00;99.90
33699;DHT22;20032;52.436;13.312;2023-02-26T06:56:51;2.00;99.90
33699;DHT22;20032;52.436;13.312;2023-02-26T06:59:17;2.10;99.90
33699;DHT22;20032;52.436;13.312;2023-02-26T07:01:43;2.10;99.90
33699;DHT22;20032;52.436;13.312;2023-02-26T07:04:09;2.10;99.90
33699;DHT22;20032;52.436;13.312;2023-02-26T07:06:34;2.20;99.90
33699;DHT22;20032;52.436;13.312;2023-02-26T07:09:00;2.20;99.90
33699;DHT22;20032;52.436;13.312;2023-02-26T07:11:25;2.20;99.90
33699;DHT22;20032;52.436;13.312;2023-02-26T07:13:51;2.30;99.90
33699;DHT22;20032;52.436;13.312;2023-02-26T07:16:16;2.40;99.90
33699;DHT22;20032;52.436;13.312;2023-02-26T07:18:42;2.40;99.90
33699;DHT22;20032;52.436;13.312;2023-02-26T07:21:07;2.50;99.90
33699;DHT22;20032;52.436;13.312;2023-02-26T07:23:33;2.60;99.90
33699;DHT22;20032;52.436;13.312;2023-02-26T07:25:58;2.50;99.90
33699;DHT22;20032;52.436;13.312;2023-02-26T07:28:24;2.50;99.90
33699;DHT22;20032;52.436;13.312;2023-02-26T07:30:50;2.40;99.90
33699;DHT22;20032;52.436;13.312;2023-02-26T07:33:17;2.40;99.90
33699;DHT22;20032;52.436;13.312;2023-02-26T07:35:43;2.40;99.90
33699;DHT22;20032;52.436;13.312;2023-02-26T07:38:08;2.50;99.90
33699;DHT22;20032;52.436;13.312;2023-02-26T07:40:34;2.50;99.90
33699;DHT22;20032;52.436;13.312;2023-02-26T07:42:59;2.40;99.90
33699;DHT22;20032;52.436;13.312;2023-02-26T07:45:25;2.40;99.90
33699;DHT22;20032;52.436;13.312;2023-02-26T07:47:51;2.40;99.90
33699;DHT22;20032;52.436;13.312;2023-02-26T07:50:18;2.40;99.90
33699;DHT22;20032;52.436;13.312;2023-02-26T07:52:44;2.40;99.90
33699;DHT22;20032;52.436;13.312;2023-02-26T07:55:10;2.50;99.90
33699;DHT22;20032;52.436;13.312;2023-02-26T07:57:35;2.60;99.90
33699;DHT22;20032;52.436;13.312;2023-02-26T08:00:01;2.60;99.90
33699;DHT22;20032;52.436;13.312;2023-02-26T08:02:27;2.60;99.90
33699;DHT22;20032;52.436;13.312;2023-02-26T08:04:52;2.60;99.90
33699;DHT22;20032;52.436;13.312;2023-02-26T08:07:18;2.60;99.90
33699;DHT22;20032;52.436;13.312;2023-02-26T08:09:43;2.70;99.90
33699;DHT22;20032;52.436;13.312;2023-02-26T08:12:09;2.70;99.90
33699;DHT22;20032;52.436;13.312;2023-02-26T08:14:34;2.70;99.90
33699;DHT22;20032;52.436;13.312;2023-02-26T08:17:00;2.90;99.90
33699;DHT22;20032;52.436;13.312;2023-02-26T08:19:25;3.00;99.90
33699;DHT22;20032;52.436;13.312;2023-02-26T08:21:51;3.10;99.90
33699;DHT22;20032;52.436;13.312;2023-02-26T08:24:16;3.10;99.90
33699;DHT22;20032;52.436;13.312;2023-02-26T08:26:42;3.10;99.90
33699;DHT22;20032;52.436;13.312;2023-02-26T08:29:07;3.10;99.90
33699;DHT22;20032;52.436;13.312;2023-02-26T08:31:33;3.20;99.90
33699;DHT22;20032;52.436;13.312;2023-02-26T08:33:59;3.20;99.90
33699;DHT22;20032;52.436;13.312;2023-02-26T08:36:25;3.20;99.90
33699;DHT22;20032;52.436;13.312;2023-02-26T08:38:52;3.30;99.90
33699;DHT22;20032;52.436;13.312;2023-02-26T08:41:17;3.40;99.90
33699;DHT22;20032;52.436;13.312;2023-02-26T08:43:43;3.50;99.90
33699;DHT22;20032;52.436;13.312;2023-02-26T08:46:08;3.30;99.90
33699;DHT22;20032;52.436;13.312;2023-02-26T08:48:34;3.30;99.90
33699;DHT22;20032;52.436;13.312;2023-02-26T08:50:59;3.40;99.90
33699;DHT22;20032;52.436;13.312;2023-02-26T08:53:25;3.50;99.90
33699;DHT22;20032;52.436;13.312;2023-02-26T08:55:52;3.60;99.90
33699;DHT22;20032;52.436;13.312;2023-02-26T08:58:18;3.60;99.90
33699;DHT22;20032;52.436;13.312;2023-02-26T09:00:44;3.60;99.90
33699;DHT22;20032;52.436;13.312;2023-02-26T09:03:10;3.50;99.90
33699;DHT22;20032;52.436;13.312;2023-02-26T09:05:35;3.70;99.90
33699;DHT22;20032;52.436;13.312;2023-02-26T09:08:01;3.70;99.90
33699;DHT22;20032;52.436;13.312;2023-02-26T09:10:27;3.80;99.90
33699;DHT22;20032;52.436;13.312;2023-02-26T09:12:52;3.80;99.90
33699;DHT22;20032;52.436;13.312;2023-02-26T09:15:18;3.90;99.90
33699;DHT22;20032;52.436;13.312;2023-02-26T09:17:44;4.20;99.90
33699;DHT22;20032;52.436;13.312;2023-02-26T09:20:10;4.30;99.90
33699;DHT22;20032;52.436;13.312;2023-02-26T09:22:36;4.30;99.90
33699;DHT22;20032;52.436;13.312;2023-02-26T09:25:03;4.30;99.90
33699;DHT22;20032;52.436;13.312;2023-02-26T09:27:29;4.40;99.90
33699;DHT22;20032;52.436;13.312;2023-02-26T09:29:58;4.50;99.90
33699;DHT22;20032;52.436;13.312;2023-02-26T09:32:24;4.80;99.90
33699;DHT22;20032;52.436;13.312;2023-02-26T09:34:51;4.90;99.90
33699;DHT22;20032;52.436;13.312;2023-02-26T09:37:16;5.10;99.90
33699;DHT22;20032;52.436;13.312;2023-02-26T09:39:43;5.10;99.90
33699;DHT22;20032;52.436;13.312;2023-02-26T09:42:35;5.10;99.90
33699;DHT22;20032;52.436;13.312;2023-02-26T09:45:06;5.20;99.90
33699;DHT22;20032;52.436;13.312;2023-02-26T09:47:41;5.10;99.90
33699;DHT22;20032;52.436;13.312;2023-02-26T09:50:19;5.00;99.90
33699;DHT22;20032;52.436;13.312;2023-02-26T09:52:59;5.10;99.90
33699;DHT22;20032;52.436;13.312;2023-02-26T09:55:30;5.30;99.90
33699;DHT22;20032;52.436;13.312;2023-02-26T09:58:02;5.30;99.90
33699;DHT22;20032;52.436;13.312;2023-02-26T10:00:43;5.50;99.90
33699;DHT22;20032;52.436;13.312;2023-02-26T10:05:22;5.70;99.90
33699;DHT22;20032;52.436;13.312;2023-02-26T10:06:25;5.90;99.90
33699;DHT22;20032;52.436;13.312;2023-02-26T10:09:29;6.10;99.90
33699;DHT22;20032;52.436;13.312;2023-02-26T10:12:04;6.10;99.90
33699;DHT22;20032;52.436;13.312;2023-02-26T10:15:00;5.70;99.90
33699;DHT22;20032;52.436;13.312;2023-02-26T10:17:29;5.50;99.90
33699;DHT22;20032;52.436;13.312;2023-02-26T10:20:03;5.50;99.90
33699;DHT22;20032;52.436;13.312;2023-02-26T10:22:36;5.50;99.90
33699;DHT22;20032;52.436;13.312;2023-02-26T10:28:05;6.30;99.90
33699;DHT22;20032;52.436;13.312;2023-02-26T10:30:41;6.30;99.90
33699;DHT22;20032;52.436;13.312;2023-02-26T10:33:32;6.40;99.90
33699;DHT22;20032;52.436;13.312;2023-02-26T10:36:13;6.30;99.90
33699;DHT22;20032;52.436;13.312;2023-02-26T10:39:01;6.40;99.90
33699;DHT22;20032;52.436;13.312;2023-02-26T10:41:30;6.20;99.90
33699;DHT22;20032;52.436;13.312;2023-02-26T10:44:23;6.50;99.90
33699;DHT22;20032;52.436;13.312;2023-02-26T10:47:10;6.80;99.90
33699;DHT22;20032;52.436;13.312;2023-02-26T10:49:54;6.90;99.90
33699;DHT22;20032;52.436;13.312;2023-02-26T10:52:25;7.00;99.90
33699;DHT22;20032;52.436;13.312;2023-02-26T10:55:12;6.90;99.90
33699;DHT22;20032;52.436;13.312;2023-02-26T10:57:47;6.90;99.90
33699;DHT22;20032;52.436;13.312;2023-02-26T11:00:18;7.20;99.90
33699;DHT22;20032;52.436;13.312;2023-02-26T11:02:47;7.10;99.90
33699;DHT22;20032;52.436;13.312;2023-02-26T11:05:18;6.80;99.90
33699;DHT22;20032;52.436;13.312;2023-02-26T11:07:46;6.60;99.90
33699;DHT22;20032;52.436;13.312;2023-02-26T11:10:16;6.70;99.90
33699;DHT22;20032;52.436;13.312;2023-02-26T11:12:41;6.70;99.90
33699;DHT22;20032;52.436;13.312;2023-02-26T11:15:17;6.70;99.90
33699;DHT22;20032;52.436;13.312;2023-02-26T11:17:46;6.90;99.90
33699;DHT22;20032;52.436;13.312;2023-02-26T11:22:47;7.40;99.90
33699;DHT22;20032;52.436;13.312;2023-02-26T11:25:16;7.60;99.90
33699;DHT22;20032;52.436;13.312;2023-02-26T11:27:43;7.50;99.90
33699;DHT22;20032;52.436;13.312;2023-02-26T11:30:20;6.90;99.90
33699;DHT22;20032;52.436;13.312;2023-02-26T11:32:50;6.60;99.90
33699;DHT22;20032;52.436;13.312;2023-02-26T11:35:17;6.60;99.90
33699;DHT22;20032;52.436;13.312;2023-02-26T11:37:47;7.10;99.90
33699;DHT22;20032;52.436;13.312;2023-02-26T11:40:22;7.60;99.90
33699;DHT22;20032;52.436;13.312;2023-02-26T11:42:54;7.60;99.90
33699;DHT22;20032;52.436;13.312;2023-02-26T11:45:22;7.60;99.90
33699;DHT22;20032;52.436;13.312;2023-02-26T11:47:52;7.90;99.90
33699;DHT22;20032;52.436;13.312;2023-02-26T11:50:22;7.90;99.30
33699;DHT22;20032;52.436;13.312;2023-02-26T11:52:56;7.60;99.20
33699;DHT22;20032;52.436;13.312;2023-02-26T11:55:29;7.10;99.90
33699;DHT22;20032;52.436;13.312;2023-02-26T11:57:56;6.50;99.90
33699;DHT22;20032;52.436;13.312;2023-02-26T12:00:30;6.30;99.90
33699;DHT22;20032;52.436;13.312;2023-02-26T12:03:02;6.30;99.90
33699;DHT22;20032;52.436;13.312;2023-02-26T12:05:30;6.30;99.90
33699;DHT22;20032;52.436;13.312;2023-02-26T12:07:56;6.20;99.90
33699;DHT22;20032;52.436;13.312;2023-02-26T12:10:28;6.20;99.90
33699;DHT22;20032;52.436;13.312;2023-02-26T12:13:18;6.00;99.90
33699;DHT22;20032;52.436;13.312;2023-02-26T12:15:56;6.10;99.90
33699;DHT22;20032;52.436;13.312;2023-02-26T12:18:35;6.10;99.90
33699;DHT22;20032;52.436;13.312;2023-02-26T12:21:26;6.10;99.90
33699;DHT22;20032;52.436;13.312;2023-02-26T12:24:21;6.70;99.90
33699;DHT22;20032;52.436;13.312;2023-02-26T12:30:02;6.50;99.90
33699;DHT22;20032;52.436;13.312;2023-02-26T12:35:21;6.00;99.90
33699;DHT22;20032;52.436;13.312;2023-02-26T12:38:14;5.80;99.90
33699;DHT22;20032;52.436;13.312;2023-02-26T12:43:49;5.80;99.90
33699;DHT22;20032;52.436;13.312;2023-02-26T12:46:28;6.70;99.90
33699;DHT22;20032;52.436;13.312;2023-02-26T12:49:40;7.90;99.90
33699;DHT22;20032;52.436;13.312;2023-02-26T12:52:22;8.80;99.30
33699;DHT22;20032;52.436;13.312;2023-02-26T12:58:17;10.40;91.60
33699;DHT22;20032;52.436;13.312;2023-02-26T13:00:58;9.40;92.90
33699;DHT22;20032;52.436;13.312;2023-02-26T13:04:04;8.50;94.80
33699;DHT22;20032;52.436;13.312;2023-02-26T13:10:02;7.40;97.00
33699;DHT22;20032;52.436;13.312;2023-02-26T13:17:30;6.40;99.90
33699;DHT22;20032;52.436;13.312;2023-02-26T13:20:03;6.70;99.80
33699;DHT22;20032;52.436;13.312;2023-02-26T13:22:40;7.10;98.80
33699;DHT22;20032;52.436;13.312;2023-02-26T13:27:56;8.70;95.00
33699;DHT22;20032;52.436;13.312;2023-02-26T13:30:26;8.90;93.20
33699;DHT22;20032;52.436;13.312;2023-02-26T13:32:56;8.30;93.10
33699;DHT22;20032;52.436;13.312;2023-02-26T13:35:28;7.60;95.80
33699;DHT22;20032;52.436;13.312;2023-02-26T13:37:57;7.50;97.80
33699;DHT22;20032;52.436;13.312;2023-02-26T13:43:52;6.90;97.70
33699;DHT22;20032;52.436;13.312;2023-02-26T13:49:14;6.30;98.80
33699;DHT22;20032;52.436;13.312;2023-02-26T13:51:43;6.00;99.40
33699;DHT22;20032;52.436;13.312;2023-02-26T13:56:41;5.90;98.60
33699;DHT22;20032;52.436;13.312;2023-02-26T14:01:59;5.80;98.30
33699;DHT22;20032;52.436;13.312;2023-02-26T14:04:30;5.70;98.90
33699;DHT22;20032;52.436;13.312;2023-02-26T14:09:34;6.10;99.40
33699;DHT22;20032;52.436;13.312;2023-02-26T14:12:02;6.40;98.80
33699;DHT22;20032;52.436;13.312;2023-02-26T14:14:35;6.90;98.10
33699;DHT22;20032;52.436;13.312;2023-02-26T14:19:37;7.20;94.70
33699;DHT22;20032;52.436;13.312;2023-02-26T14:22:42;7.00;94.50
33699;DHT22;20032;52.436;13.312;2023-02-26T14:31:06;6.30;94.20
33699;DHT22;20032;52.436;13.312;2023-02-26T14:33:39;5.80;94.60
33699;DHT22;20032;52.436;13.312;2023-02-26T14:36:16;5.90;95.20
33699;DHT22;20032;52.436;13.312;2023-02-26T14:38:43;5.90;97.20
33699;DHT22;20032;52.436;13.312;2023-02-26T14:41:24;6.10;94.70
33699;DHT22;20032;52.436;13.312;2023-02-26T14:43:54;6.00;96.40
33699;DHT22;20032;52.436;13.312;2023-02-26T14:46:24;6.10;95.70
33699;DHT22;20032;52.436;13.312;2023-02-26T14:48:49;6.20;96.00
33699;DHT22;20032;52.436;13.312;2023-02-26T14:54:18;6.20;95.40
33699;DHT22;20032;52.436;13.312;2023-02-26T14:58:57;6.30;96.50
33699;DHT22;20032;52.436;13.312;2023-02-26T15:05:34;5.90;97.10
33699;DHT22;20032;52.436;13.312;2023-02-26T15:08:22;5.80;98.50
33699;DHT22;20032;52.436;13.312;2023-02-26T15:11:02;5.70;97.70
33699;DHT22;20032;52.436;13.312;2023-02-26T15:13:56;5.60;97.20
33699;DHT22;20032;52.436;13.312;2023-02-26T15:19:37;5.60;96.70
33699;DHT22;20032;52.436;13.312;2023-02-26T15:24:02;5.30;97.80
33699;DHT22;20032;52.436;13.312;2023-02-26T15:24:46;5.20;99.90
33699;DHT22;20032;52.436;13.312;2023-02-26T15:27:16;5.10;99.40
33699;DHT22;20032;52.436;13.312;2023-02-26T15:29:42;5.10;99.90
33699;DHT22;20032;52.436;13.312;2023-02-26T15:32:21;5.10;99.30
33699;DHT22;20032;52.436;13.312;2023-02-26T15:34:54;5.00;98.70
33699;DHT22;20032;52.436;13.312;2023-02-26T15:37:24;5.00;98.90
33699;DHT22;20032;52.436;13.312;2023-02-26T15:39:52;5.00;99.30
33699;DHT22;20032;52.436;13.312;2023-02-26T15:42:19;5.00;98.30
33699;DHT22;20032;52.436;13.312;2023-02-26T15:44:46;4.80;99.50
33699;DHT22;20032;52.436;13.312;2023-02-26T15:47:14;4.90;98.70
33699;DHT22;20032;52.436;13.312;2023-02-26T15:49:43;4.90;99.60
33699;DHT22;20032;52.436;13.312;2023-02-26T15:52:14;4.80;99.80
33699;DHT22;20032;52.436;13.312;2023-02-26T15:54:46;4.70;99.90
33699;DHT22;20032;52.436;13.312;2023-02-26T15:57:15;4.90;99.70
33699;DHT22;20032;52.436;13.312;2023-02-26T15:59:44;4.90;99.90
33699;DHT22;20032;52.436;13.312;2023-02-26T16:02:12;4.90;99.90
33699;DHT22;20032;52.436;13.312;2023-02-26T16:04:38;4.90;99.90
33699;DHT22;20032;52.436;13.312;2023-02-26T16:07:03;4.90;99.10
33699;DHT22;20032;52.436;13.312;2023-02-26T16:09:40;5.00;99.40
33699;DHT22;20032;52.436;13.312;2023-02-26T16:12:09;5.00;99.70
33699;DHT22;20032;52.436;13.312;2023-02-26T16:14:40;5.00;99.30
33699;DHT22;20032;52.436;13.312;2023-02-26T16:17:11;4.90;99.70
33699;DHT22;20032;52.436;13.312;2023-02-26T16:19:42;4.90;99.90
33699;DHT22;20032;52.436;13.312;2023-02-26T16:22:24;4.80;99.90
33699;DHT22;20032;52.436;13.312;2023-02-26T16:24:57;4.70;99.90
33699;DHT22;20032;52.436;13.312;2023-02-26T16:27:26;4.60;99.90
33699;DHT22;20032;52.436;13.312;2023-02-26T16:29:55;4.50;99.90
33699;DHT22;20032;52.436;13.312;2023-02-26T16:32:23;4.40;99.90
33699;DHT22;20032;52.436;13.312;2023-02-26T16:34:54;4.20;99.90
33699;DHT22;20032;52.436;13.312;2023-02-26T16:37:22;4.10;99.90
33699;DHT22;20032;52.436;13.312;2023-02-26T16:40:22;4.00;99.90
33699;DHT22;20032;52.436;13.312;2023-02-26T16:47:46;4.10;99.90
33699;DHT22;20032;52.436;13.312;2023-02-26T16:50:18;4.00;99.90
33699;DHT22;20032;52.436;13.312;2023-02-26T16:53:04;4.00;99.90
33699;DHT22;20032;52.436;13.312;2023-02-26T16:55:33;4.00;99.90
33699;DHT22;20032;52.436;13.312;2023-02-26T16:58:01;4.00;99.90
33699;DHT22;20032;52.436;13.312;2023-02-26T17:00:30;4.00;99.90
33699;DHT22;20032;52.436;13.312;2023-02-26T17:03:16;4.00;99.90
33699;DHT22;20032;52.436;13.312;2023-02-26T17:05:51;4.20;99.90
33699;DHT22;20032;52.436;13.312;2023-02-26T17:08:19;4.20;99.90
33699;DHT22;20032;52.436;13.312;2023-02-26T17:10:50;4.20;99.90
33699;DHT22;20032;52.436;13.312;2023-02-26T17:13:24;4.20;99.90
33699;DHT22;20032;52.436;13.312;2023-02-26T17:15:50;3.90;99.90
33699;DHT22;20032;52.436;13.312;2023-02-26T17:18:19;3.80;99.90